createdAt,value
2018-09-01T00:00:07.890Z,11.90
2018-09-01T00:02:35.748Z,11.90
2018-09-01T00:05:03.586Z,11.90
2018-09-01T00:07:31.390Z,11.80
2018-09-01T00:09:59.648Z,11.70
2018-09-01T00:12:27.311Z,11.70
2018-09-01T00:14:55.193Z,11.70
2018-09-01T00:17:27.663Z,11.70
2018-09-01T00:19:56.150Z,11.70
2018-09-01T00:22:23.812Z,11.60
2018-09-01T00:24:52.359Z,11.60
2018-09-01T00:27:20.249Z,11.60
2018-09-01T00:29:47.991Z,11.60
2018-09-01T00:32:15.764Z,11.60
2018-09-01T00:34:43.957Z,11.60
2018-09-01T00:37:11.672Z,11.50
2018-09-01T00:39:43.861Z,11.40
2018-09-01T00:42:12.886Z,11.30
2018-09-01T00:44:40.578Z,11.20
2018-09-01T00:47:08.279Z,11.20
2018-09-01T00:49:36.209Z,11.20
2018-09-01T00:52:03.918Z,11.20
2018-09-01T00:54:31.586Z,11.10
2018-09-01T00:56:59.263Z,11.00
2018-09-01T00:59:27.023Z,10.90
2018-09-01T01:01:54.683Z,11.00
2018-09-01T01:04:22.448Z,10.90
2018-09-01T01:06:50.147Z,11.00
2018-09-01T01:09:17.831Z,11.00
2018-09-01T01:11:45.646Z,11.00
2018-09-01T01:14:13.320Z,10.90
2018-09-01T01:16:41.080Z,10.90
2018-09-01T01:19:08.733Z,10.90
2018-09-01T01:21:36.384Z,10.90
2018-09-01T01:24:24.706Z,10.90
2018-09-01T01:26:54.881Z,10.90
2018-09-01T01:29:23.246Z,10.90
2018-09-01T01:31:51.991Z,10.80
2018-09-01T01:34:20.281Z,10.80
2018-09-01T01:36:48.752Z,10.80
2018-09-01T01:39:16.449Z,10.80
2018-09-01T01:41:44.890Z,10.80
2018-09-01T01:44:12.980Z,10.80
2018-09-01T01:46:40.621Z,10.70
2018-09-01T01:49:08.501Z,10.70
2018-09-01T01:51:36.186Z,10.60
2018-09-01T01:54:03.909Z,10.60
2018-09-01T01:56:31.574Z,10.70
2018-09-01T01:58:59.290Z,10.60
2018-09-01T02:01:26.963Z,10.60
2018-09-01T02:03:54.648Z,10.60
2018-09-01T02:06:22.605Z,10.70
2018-09-01T02:08:50.265Z,10.60
2018-09-01T02:11:17.945Z,10.60
2018-09-01T02:13:45.577Z,10.50
2018-09-01T02:16:13.390Z,10.40
2018-09-01T02:18:41.055Z,10.40
2018-09-01T02:21:08.722Z,10.40
2018-09-01T02:23:36.649Z,10.40
2018-09-01T02:26:04.358Z,10.40
2018-09-01T02:28:34.950Z,10.30
2018-09-01T02:31:05.439Z,10.30
2018-09-01T02:33:37.127Z,10.30
2018-09-01T02:36:04.850Z,10.20
2018-09-01T02:38:32.630Z,10.10
2018-09-01T02:41:00.350Z,10.10
2018-09-01T02:43:28.010Z,10.20
2018-09-01T02:45:55.762Z,10.20
2018-09-01T02:48:23.433Z,10.10
2018-09-01T02:50:51.133Z,10.10
2018-09-01T02:53:19.250Z,10.10
2018-09-01T02:55:46.979Z,10.00
2018-09-01T02:58:14.678Z,10.00
2018-09-01T03:00:42.367Z,10.00
2018-09-01T03:03:10.038Z,10.00
2018-09-01T03:05:37.724Z,10.00
2018-09-01T03:08:05.443Z,10.00
2018-09-01T03:10:33.160Z,9.90
2018-09-01T03:13:00.810Z,9.80
2018-09-01T03:15:28.506Z,9.80
2018-09-01T03:17:56.194Z,9.80
2018-09-01T03:20:24.500Z,9.90
2018-09-01T03:22:52.697Z,9.90
2018-09-01T03:25:20.353Z,9.90
2018-09-01T03:27:48.117Z,9.80
2018-09-01T03:30:15.790Z,9.80
2018-09-01T03:32:43.427Z,9.70
2018-09-01T03:35:11.197Z,9.70
2018-09-01T03:37:38.888Z,9.60
2018-09-01T03:40:07.307Z,9.60
2018-09-01T03:42:34.979Z,9.50
2018-09-01T03:45:02.707Z,9.60
2018-09-01T03:47:30.429Z,9.50
2018-09-01T03:49:58.130Z,9.50
2018-09-01T03:52:25.887Z,9.50
2018-09-01T03:54:53.555Z,9.60
2018-09-01T03:57:21.234Z,9.60
2018-09-01T03:59:49.542Z,9.60
2018-09-01T04:02:17.199Z,9.50
2018-09-01T04:04:44.871Z,9.50
2018-09-01T04:07:12.873Z,9.60
2018-09-01T04:09:40.525Z,9.50
2018-09-01T04:12:08.223Z,9.60
2018-09-01T04:14:35.913Z,9.60
2018-09-01T04:17:03.594Z,9.50
2018-09-01T04:19:31.466Z,9.50
2018-09-01T04:21:59.190Z,9.50
2018-09-01T04:24:26.818Z,9.50
2018-09-01T04:26:54.606Z,9.40
2018-09-01T04:29:22.274Z,9.50
2018-09-01T04:31:49.952Z,9.50
2018-09-01T04:34:17.801Z,9.40
2018-09-01T04:36:45.493Z,9.50
2018-09-01T04:39:13.950Z,9.40
2018-09-01T04:41:42.934Z,9.50
2018-09-01T04:44:10.754Z,9.40
2018-09-01T04:46:38.925Z,9.40
2018-09-01T04:49:06.930Z,9.30
2018-09-01T04:51:34.673Z,9.20
2018-09-01T04:54:02.339Z,9.20
2018-09-01T04:56:30.006Z,9.20
2018-09-01T04:58:57.648Z,9.20
2018-09-01T05:01:25.474Z,9.20
2018-09-01T05:03:53.101Z,9.30
2018-09-01T05:06:20.794Z,9.20
2018-09-01T05:08:48.437Z,9.20
2018-09-01T05:11:16.126Z,9.30
2018-09-01T05:13:43.808Z,9.30
2018-09-01T05:16:11.557Z,9.20
2018-09-01T05:18:39.251Z,9.30
2018-09-01T05:21:06.908Z,9.30
2018-09-01T05:23:34.764Z,9.30
2018-09-01T05:26:02.420Z,9.20
2018-09-01T05:28:30.161Z,9.10
2018-09-01T05:30:57.807Z,9.10
2018-09-01T05:33:25.555Z,9.10
2018-09-01T05:35:53.574Z,9.20
2018-09-01T05:38:21.254Z,9.20
2018-09-01T05:40:48.928Z,9.30
2018-09-01T05:43:16.614Z,9.50
2018-09-01T05:45:44.262Z,9.60
2018-09-01T05:48:11.949Z,9.70
2018-09-01T05:50:39.671Z,9.70
2018-09-01T05:53:07.354Z,9.70
2018-09-01T05:55:35.084Z,9.80
2018-09-01T05:58:06.005Z,9.90
2018-09-01T06:00:35.751Z,10.00
2018-09-01T06:03:03.410Z,10.10
2018-09-01T06:05:31.154Z,10.10
2018-09-01T06:07:59.054Z,10.30
2018-09-01T06:10:26.782Z,10.40
2018-09-01T06:13:01.597Z,10.60
2018-09-01T06:15:29.241Z,10.60
2018-09-01T06:17:57.000Z,10.60
2018-09-01T06:20:24.754Z,10.80
2018-09-01T06:22:52.689Z,10.90
2018-09-01T06:25:20.461Z,11.10
2018-09-01T06:27:50.148Z,11.30
2018-09-01T06:30:23.458Z,11.40
2018-09-01T06:32:51.234Z,11.50
2018-09-01T06:35:18.890Z,11.50
2018-09-01T06:37:46.686Z,11.60
2018-09-01T06:40:16.622Z,11.80
2018-09-01T06:42:44.249Z,11.80
2018-09-01T06:45:12.538Z,12.00
2018-09-01T06:47:42.148Z,12.10
2018-09-01T06:50:09.854Z,12.20
2018-09-01T06:52:37.674Z,12.30
2018-09-01T06:55:05.381Z,12.60
2018-09-01T06:57:33.026Z,12.70
2018-09-01T07:00:00.754Z,12.70
2018-09-01T07:02:28.450Z,12.70
2018-09-01T07:04:56.164Z,12.90
2018-09-01T07:07:24.633Z,12.80
2018-09-01T07:09:52.322Z,12.90
2018-09-01T07:12:20.170Z,13.10
2018-09-01T07:14:47.831Z,13.20
2018-09-01T07:17:15.568Z,13.20
2018-09-01T07:19:43.273Z,13.30
2018-09-01T07:22:11.047Z,13.40
2018-09-01T07:24:38.747Z,13.40
2018-09-01T07:27:06.806Z,13.50
2018-09-01T07:29:35.118Z,13.90
2018-09-01T07:32:02.762Z,13.90
2018-09-01T07:34:30.585Z,13.90
2018-09-01T07:36:58.245Z,14.10
2018-09-01T07:39:26.108Z,14.20
2018-09-01T07:41:53.737Z,14.30
2018-09-01T07:44:21.438Z,14.50
2018-09-01T07:46:49.594Z,14.50
2018-09-01T07:49:18.240Z,14.60
2018-09-01T07:51:46.111Z,14.70
2018-09-01T07:54:13.861Z,14.60
2018-09-01T07:56:41.534Z,14.90
2018-09-01T07:59:09.230Z,15.00
2018-09-01T08:01:36.982Z,15.30
2018-09-01T08:04:04.731Z,15.30
2018-09-01T08:06:32.447Z,15.30
2018-09-01T08:09:00.270Z,15.30
2018-09-01T08:11:27.938Z,15.50
2018-09-01T08:13:55.726Z,15.50
2018-09-01T08:16:23.329Z,15.60
2018-09-01T08:18:50.989Z,15.60
2018-09-01T08:21:18.676Z,15.70
2018-09-01T08:23:46.319Z,15.80
2018-09-01T08:26:14.046Z,15.90
2018-09-01T08:28:41.770Z,16.10
2018-09-01T08:31:09.614Z,16.10
2018-09-01T08:33:37.296Z,16.20
2018-09-01T08:36:05.342Z,16.20
2018-09-01T08:38:33.001Z,16.40
2018-09-01T08:41:01.086Z,16.40
2018-09-01T08:43:28.737Z,16.60
2018-09-01T08:45:56.433Z,16.80
2018-09-01T08:48:24.093Z,17.00
2018-09-01T08:50:51.781Z,17.20
2018-09-01T08:53:19.425Z,17.40
2018-09-01T08:55:47.250Z,17.50
2018-09-01T08:58:14.909Z,17.40
2018-09-01T09:00:42.605Z,17.50
2018-09-01T09:03:10.403Z,17.60
2018-09-01T09:05:38.956Z,17.70
2018-09-01T09:08:10.514Z,17.70
2018-09-01T09:10:38.202Z,17.80
2018-09-01T09:13:06.062Z,17.90
2018-09-01T09:15:33.806Z,17.70
2018-09-01T09:18:01.463Z,17.90
2018-09-01T09:20:29.142Z,18.00
2018-09-01T09:22:56.806Z,18.00
2018-09-01T09:25:24.687Z,18.30
2018-09-01T09:27:52.622Z,18.60
2018-09-01T09:30:20.386Z,18.70
2018-09-01T09:32:48.050Z,18.80
2018-09-01T09:35:15.693Z,19.00
2018-09-01T09:37:43.374Z,19.10
2018-09-01T09:40:11.177Z,19.10
2018-09-01T09:42:38.863Z,19.00
2018-09-01T09:45:06.774Z,19.10
2018-09-01T09:47:34.461Z,19.30
2018-09-01T09:50:04.107Z,19.30
2018-09-01T09:52:31.866Z,19.40
2018-09-01T09:54:59.738Z,19.50
2018-09-01T09:57:27.430Z,19.60
2018-09-01T09:59:55.113Z,19.70
2018-09-01T10:02:22.850Z,19.80
2018-09-01T10:04:50.489Z,19.80
2018-09-01T10:07:18.178Z,19.70
2018-09-01T10:09:45.857Z,19.80
2018-09-01T10:12:13.574Z,20.10
2018-09-01T10:14:41.243Z,20.30
2018-09-01T10:17:09.037Z,20.40
2018-09-01T10:19:36.722Z,20.30
2018-09-01T10:22:04.526Z,20.30
2018-09-01T10:24:32.201Z,20.30
2018-09-01T10:27:01.028Z,20.50
2018-09-01T10:29:28.634Z,20.70
2018-09-01T10:31:56.329Z,20.70
2018-09-01T10:34:24.074Z,21.00
2018-09-01T10:36:51.809Z,21.20
2018-09-01T10:39:19.475Z,21.30
2018-09-01T10:41:47.781Z,21.40
2018-09-01T10:44:15.495Z,21.00
2018-09-01T10:46:43.197Z,21.00
2018-09-01T10:49:10.921Z,21.20
2018-09-01T10:51:38.621Z,21.20
2018-09-01T10:54:06.293Z,20.70
2018-09-01T10:56:34.329Z,20.20
2018-09-01T10:59:02.109Z,20.20
2018-09-01T11:01:29.757Z,20.60
2018-09-01T11:03:57.442Z,20.80
2018-09-01T11:06:25.138Z,20.80
2018-09-01T11:08:52.817Z,20.60
2018-09-01T11:11:20.642Z,20.50
2018-09-01T11:13:49.098Z,20.80
2018-09-01T11:16:16.786Z,21.10
2018-09-01T11:18:44.477Z,21.70
2018-09-01T11:21:12.287Z,22.10
2018-09-01T11:23:39.986Z,22.20
2018-09-01T11:26:07.688Z,22.20
2018-09-01T11:28:35.382Z,22.30
2018-09-01T11:31:05.214Z,21.80
2018-09-01T11:33:32.982Z,21.20
2018-09-01T11:36:00.793Z,20.80
2018-09-01T11:38:28.499Z,20.80
2018-09-01T11:40:56.200Z,20.70
2018-09-01T11:43:23.866Z,20.80
2018-09-01T11:45:52.209Z,21.30
2018-09-01T11:48:19.946Z,21.50
2018-09-01T11:50:47.669Z,21.80
2018-09-01T11:53:15.439Z,22.20
2018-09-01T11:55:43.046Z,22.80
2018-09-01T11:58:10.745Z,23.40
2018-09-01T12:00:41.437Z,24.00
2018-09-01T12:03:09.135Z,24.10
2018-09-01T12:05:36.805Z,23.70
2018-09-01T12:08:04.702Z,23.10
2018-09-01T12:10:32.389Z,22.60
2018-09-01T12:13:00.088Z,22.20
2018-09-01T12:15:28.209Z,22.00
2018-09-01T12:17:56.286Z,22.70
2018-09-01T12:20:23.937Z,23.40
2018-09-01T12:22:51.805Z,24.00
2018-09-01T12:25:19.488Z,23.90
2018-09-01T12:27:47.178Z,23.70
2018-09-01T12:30:18.753Z,23.10
2018-09-01T12:32:46.513Z,22.40
2018-09-01T12:35:14.368Z,22.00
2018-09-01T12:37:42.074Z,21.70
2018-09-01T12:40:09.800Z,21.50
2018-09-01T12:42:37.489Z,21.80
2018-09-01T12:45:06.157Z,22.50
2018-09-01T12:47:33.866Z,23.00
2018-09-01T12:50:01.582Z,23.40
2018-09-01T12:52:29.253Z,23.60
2018-09-01T12:54:56.958Z,24.10
2018-09-01T12:57:24.990Z,24.30
2018-09-01T12:59:52.705Z,24.50
2018-09-01T13:02:23.105Z,24.30
2018-09-01T13:04:50.797Z,24.30
2018-09-01T13:07:18.569Z,24.40
2018-09-01T13:09:47.177Z,24.60
2018-09-01T13:12:14.902Z,24.60
2018-09-01T13:14:43.124Z,24.70
2018-09-01T13:17:13.489Z,24.70
2018-09-01T13:19:42.200Z,24.70
2018-09-01T13:22:09.974Z,24.50
2018-09-01T13:24:37.666Z,24.30
2018-09-01T13:27:05.357Z,24.70
2018-09-01T13:29:33.153Z,24.90
2018-09-01T13:32:01.328Z,24.70
2018-09-01T13:34:29.177Z,24.60
2018-09-01T13:36:56.822Z,24.80
2018-09-01T13:39:24.585Z,25.00
2018-09-01T13:41:52.277Z,25.10
2018-09-01T13:44:20.053Z,25.30
2018-09-01T13:46:48.206Z,25.90
2018-09-01T13:49:16.207Z,26.00
2018-09-01T13:51:43.897Z,26.40
2018-09-01T13:54:12.096Z,26.90
2018-09-01T13:56:40.338Z,27.50
2018-09-01T13:59:08.029Z,28.90
2018-09-01T14:01:35.682Z,30.30
2018-09-01T14:04:03.970Z,32.00
2018-09-01T14:06:32.166Z,32.80
2018-09-01T14:08:59.866Z,34.20
2018-09-01T14:11:28.109Z,35.40
2018-09-01T14:13:55.797Z,37.00
2018-09-01T14:16:24.293Z,36.10
2018-09-01T14:18:51.989Z,36.40
2018-09-01T14:21:19.682Z,36.70
2018-09-01T14:23:47.345Z,36.90
2018-09-01T14:26:15.231Z,36.90
2018-09-01T14:28:42.926Z,36.90
2018-09-01T14:31:10.662Z,37.90
2018-09-01T14:33:38.370Z,37.60
2018-09-01T14:36:07.173Z,37.10
2018-09-01T14:38:34.874Z,37.60
2018-09-01T14:41:02.611Z,37.20
2018-09-01T14:43:30.282Z,36.20
2018-09-01T14:45:57.978Z,33.50
2018-09-01T14:48:25.764Z,30.90
2018-09-01T14:50:53.798Z,29.20
2018-09-01T14:53:21.974Z,29.50
2018-09-01T14:55:49.634Z,30.90
2018-09-01T14:58:17.320Z,30.60
2018-09-01T15:00:45.019Z,30.90
2018-09-01T15:03:12.670Z,32.20
2018-09-01T15:05:40.347Z,33.50
2018-09-01T15:08:08.437Z,35.40
2018-09-01T15:10:36.162Z,34.30
2018-09-01T15:13:03.865Z,33.10
2018-09-01T15:15:31.505Z,33.30
2018-09-01T15:17:59.194Z,34.50
2018-09-01T15:20:26.949Z,35.10
2018-09-01T15:22:54.642Z,35.80
2018-09-01T15:25:22.542Z,36.40
2018-09-01T15:27:50.238Z,36.40
2018-09-01T15:30:17.941Z,36.50
2018-09-01T15:32:45.728Z,37.80
2018-09-01T15:35:13.421Z,37.20
2018-09-01T15:37:41.090Z,38.10
2018-09-01T15:40:08.794Z,37.40
2018-09-01T15:42:39.486Z,36.40
2018-09-01T15:45:07.258Z,36.20
2018-09-01T15:47:35.043Z,36.00
2018-09-01T15:50:02.806Z,35.60
2018-09-01T15:52:30.499Z,35.20
2018-09-01T15:54:59.133Z,35.40
2018-09-01T15:57:26.846Z,35.30
2018-09-01T15:59:54.520Z,35.50
2018-09-01T16:02:22.386Z,36.40
2018-09-01T16:04:50.039Z,37.40
2018-09-01T16:07:17.759Z,37.50
2018-09-01T16:09:45.521Z,36.80
2018-09-01T16:12:13.204Z,36.20
2018-09-01T16:14:40.866Z,36.40
2018-09-01T16:17:08.553Z,36.50
2018-09-01T16:19:36.233Z,35.50
2018-09-01T16:22:03.985Z,35.50
2018-09-01T16:24:31.742Z,35.00
2018-09-01T16:26:59.358Z,34.90
2018-09-01T16:29:27.061Z,35.00
2018-09-01T16:31:54.753Z,34.00
2018-09-01T16:34:22.643Z,35.40
2018-09-01T16:36:50.329Z,35.30
2018-09-01T16:39:20.978Z,34.70
2018-09-01T16:41:48.648Z,33.90
2018-09-01T16:44:16.513Z,33.80
2018-09-01T16:46:44.161Z,32.90
2018-09-01T16:49:11.872Z,32.00
2018-09-01T16:51:39.542Z,32.60
2018-09-01T16:54:07.242Z,32.60
2018-09-01T16:56:34.926Z,32.10
2018-09-01T16:59:03.040Z,32.00
2018-09-01T17:01:31.048Z,32.90
2018-09-01T17:03:58.737Z,32.50
2018-09-01T17:06:26.401Z,33.00
2018-09-01T17:08:54.101Z,32.10
2018-09-01T17:11:21.782Z,31.00
2018-09-01T17:13:49.493Z,31.80
2018-09-01T17:16:18.166Z,31.40
2018-09-01T17:18:45.923Z,30.60
2018-09-01T17:21:13.697Z,30.30
2018-09-01T17:23:41.673Z,30.20
2018-09-01T17:26:09.406Z,29.50
2018-09-01T17:28:37.110Z,29.00
2018-09-01T17:31:04.987Z,28.80
2018-09-01T17:33:32.758Z,28.00
2018-09-01T17:36:00.441Z,27.00
2018-09-01T17:38:28.754Z,25.80
2018-09-01T17:40:56.910Z,24.70
2018-09-01T17:43:24.676Z,23.90
2018-09-01T17:45:52.406Z,23.10
2018-09-01T17:48:20.170Z,22.60
2018-09-01T17:50:48.034Z,22.10
2018-09-01T17:53:15.733Z,21.80
2018-09-01T17:55:43.393Z,21.70
2018-09-01T17:58:11.083Z,21.40
2018-09-01T18:00:38.834Z,21.20
2018-09-01T18:03:07.038Z,20.90
2018-09-01T18:05:34.722Z,20.70
2018-09-01T18:08:02.425Z,20.50
2018-09-01T18:10:30.245Z,20.40
2018-09-01T18:12:59.766Z,20.30
2018-09-01T18:15:27.598Z,20.10
2018-09-01T18:17:55.362Z,20.00
2018-09-01T18:20:23.054Z,19.70
2018-09-01T18:22:50.772Z,19.50
2018-09-01T18:25:18.429Z,19.40
2018-09-01T18:27:49.858Z,19.40
2018-09-01T18:30:17.559Z,19.30
2018-09-01T18:32:45.234Z,19.10
2018-09-01T18:35:12.935Z,19.00
2018-09-01T18:37:40.669Z,18.80
2018-09-01T18:40:09.298Z,18.70
2018-09-01T18:42:36.998Z,18.60
2018-09-01T18:45:05.378Z,18.50
2018-09-01T18:47:33.032Z,18.30
2018-09-01T18:50:00.749Z,18.20
2018-09-01T18:52:28.486Z,18.00
2018-09-01T18:54:56.129Z,17.80
2018-09-01T18:57:23.765Z,17.70
2018-09-01T18:59:51.442Z,17.60
2018-09-01T19:02:19.162Z,17.60
2018-09-01T19:04:46.839Z,17.40
2018-09-01T19:07:14.456Z,17.30
2018-09-01T19:09:42.128Z,17.30
2018-09-01T19:12:09.793Z,17.10
2018-09-01T19:14:37.445Z,17.00
2018-09-01T19:17:05.091Z,16.90
2018-09-01T19:19:33.017Z,16.80
2018-09-01T19:22:00.745Z,16.80
2018-09-01T19:24:28.615Z,16.70
2018-09-01T19:26:56.317Z,16.60
2018-09-01T19:29:23.917Z,16.60
2018-09-01T19:31:51.550Z,16.50
2018-09-01T19:34:19.199Z,16.50
2018-09-01T19:36:46.968Z,16.40
2018-09-01T19:39:14.610Z,16.30
2018-09-01T19:41:42.898Z,16.30
2018-09-01T19:44:10.635Z,16.30
2018-09-01T19:46:38.534Z,16.20
2018-09-01T19:49:06.422Z,16.20
2018-09-01T19:51:34.157Z,16.10
2018-09-01T19:54:01.803Z,16.10
2018-09-01T19:56:30.165Z,16.00
2018-09-01T19:58:57.887Z,16.00
2018-09-01T20:01:25.619Z,16.00
2018-09-01T20:03:54.573Z,15.80
2018-09-01T20:06:22.237Z,15.70
2018-09-01T20:08:49.973Z,15.60
2018-09-01T20:11:17.698Z,15.60
2018-09-01T20:13:45.445Z,15.50
2018-09-01T20:16:13.342Z,15.40
2018-09-01T20:18:41.546Z,15.50
2018-09-01T20:21:09.258Z,15.50
2018-09-01T20:23:36.897Z,15.50
2018-09-01T20:26:04.896Z,15.50
2018-09-01T20:28:32.550Z,15.50
2018-09-01T20:31:00.210Z,15.40
2018-09-01T20:33:27.825Z,15.40
2018-09-01T20:35:58.234Z,15.30
2018-09-01T20:38:28.102Z,15.30
2018-09-01T20:40:56.072Z,15.30
2018-09-01T20:43:24.289Z,15.20
2018-09-01T20:45:51.985Z,15.10
2018-09-01T20:48:19.749Z,15.10
2018-09-01T20:50:47.749Z,15.10
2018-09-01T20:53:15.449Z,15.00
2018-09-01T20:55:43.138Z,15.00
2018-09-01T20:58:11.207Z,14.90
2018-09-01T21:00:39.017Z,14.80
2018-09-01T21:03:07.328Z,14.80
2018-09-01T21:05:35.240Z,14.70
2018-09-01T21:08:02.918Z,14.70
2018-09-01T21:10:30.593Z,14.70
2018-09-01T21:12:59.195Z,14.70
2018-09-01T21:15:26.865Z,14.60
2018-09-01T21:17:54.513Z,14.60
2018-09-01T21:20:22.143Z,14.60
2018-09-01T21:22:49.841Z,14.50
2018-09-01T21:25:17.521Z,14.50
2018-09-01T21:27:45.183Z,14.50
2018-09-01T21:30:12.823Z,14.50
2018-09-01T21:32:40.490Z,14.50
2018-09-01T21:35:08.154Z,14.50
2018-09-01T21:37:36.225Z,14.40
2018-09-01T21:40:04.612Z,14.50
2018-09-01T21:42:32.264Z,14.50
2018-09-01T21:44:59.893Z,14.50
2018-09-01T21:47:27.618Z,14.50
2018-09-01T21:49:55.250Z,14.50
2018-09-01T21:52:22.905Z,14.30
2018-09-01T21:54:51.120Z,14.30
2018-09-01T21:57:18.821Z,14.30
2018-09-01T21:59:47.005Z,14.30
2018-09-01T22:02:25.888Z,14.20
2018-09-01T22:04:59.165Z,14.20
2018-09-01T22:07:27.222Z,14.10
2018-09-01T22:09:55.182Z,14.10
2018-09-01T22:12:23.155Z,14.10
2018-09-01T22:14:52.416Z,14.10
2018-09-01T22:17:20.537Z,14.00
2018-09-01T22:19:48.341Z,14.00
2018-09-01T22:22:16.139Z,13.90
2018-09-01T22:24:43.850Z,13.80
2018-09-01T22:27:11.625Z,13.70
2018-09-01T22:29:39.441Z,13.70
2018-09-01T22:32:07.092Z,13.60
2018-09-01T22:34:34.733Z,13.60
2018-09-01T22:37:02.421Z,13.50
2018-09-01T22:39:30.142Z,13.60
2018-09-01T22:41:57.861Z,13.50
2018-09-01T22:44:25.485Z,13.60
2018-09-01T22:46:54.017Z,13.50
2018-09-01T22:49:21.757Z,13.40
2018-09-01T22:51:49.424Z,13.40
2018-09-01T22:54:17.049Z,13.30
2018-09-01T22:56:44.722Z,13.30
2018-09-01T22:59:12.957Z,13.20
2018-09-01T23:01:41.413Z,13.10
2018-09-01T23:04:09.082Z,13.00
2018-09-01T23:06:36.749Z,13.00
2018-09-01T23:09:06.150Z,13.00
2018-09-01T23:11:33.806Z,12.90
2018-09-01T23:14:01.706Z,12.80
2018-09-01T23:16:29.482Z,12.80
2018-09-01T23:18:57.175Z,12.70
2018-09-01T23:21:24.870Z,12.70
2018-09-01T23:23:52.709Z,12.70
2018-09-01T23:26:20.345Z,12.60
2018-09-01T23:28:47.993Z,12.60
2018-09-01T23:31:15.623Z,12.70
2018-09-01T23:33:43.530Z,12.70
2018-09-01T23:36:11.165Z,12.70
2018-09-01T23:38:38.930Z,12.60
2018-09-01T23:41:06.667Z,12.40
2018-09-01T23:43:34.418Z,12.40
2018-09-01T23:46:02.192Z,12.40
2018-09-01T23:48:29.878Z,12.40
2018-09-01T23:50:57.509Z,12.40
2018-09-01T23:53:25.190Z,12.40
2018-09-01T23:55:52.822Z,12.40
2018-09-01T23:58:20.494Z,12.40
